Main page
METAR-TAF:

METAR-TAF

Airports :

Chatham-Kent Airport

Chatham-Kent, Ontario, Canada

latitude: 42-18-22N, longitude: 82-04-54W, elevation: 197 m

Current weather observation

The report was made 26 minutes ago, at 19:22 UTC
Wind 8 kt from the South
Temperature 28°C
Humidity 70%
Pressure 1025 hPa
Visibility: 9.7 km
Clear sky
thunderstorm, haze

METAR: CYCK 201922Z AUTO 18008KT 6SM TS HZ CLR 28/22 A3027 RMK LTNG DIST ALQDS SLP247 DENSITY ALT 1900FT

Time: 15:48 (19:48 UTC)


TAF: missing

Weather observations and forecasts of more than 4000 airports (METAR and TAF reports).

The available stations are represented by yellow and red dots on the map.

Hover mouse over dot to see the name of the station.

Then click to see weather observations and forecasts.

To change the map : click on the green buttons with a black cross to zoom in, on the green button with a dash to zoom out, or on the green arrows for adjacent maps.


METAR-TAF: